Owen, Kentucky
Current Conditions -  °F | °C
As of 12:53 PM on Saturday 22 Nov 2014 (Local Time) from KFFT Reporting Station
Overcast Overcast  
Wind Chill: 15°   Ceiling: 10000
Heat Index: 15°   Visibility: 10mi
Dew Point:   Wind: 14mph
Humidity: 38%   Direction: 200°SSW
Pressure: 30.2"   Gusts: 25mph
Location:  38.5364°N, 84.5918°W
Report Text: KFFT 221753Z AUTO 20012G22KT 10SM OVC100 15/01 A3020 RMK AO2 SLP230 60000 T01500006 10150 20033 58031
Loading
Personal Weather Stations






























Interactive Weather Map New forecast layout! Learn more

10-Day Weather Forecast

Advertisements
Track Severe Weather on mobile